| time (UTC) | temp F | wind direction | speed MPH | gust MPH | rain 1hr in | rain 24hr in | rain mn in | humidity % | barometer mb |
| 20260510071014 | 50 | 345 | 0.0 | 0.0 | 0.00 | 0.00 | 0.00 | 99 | 1025.6 |
| 20260510070511 | 50 | 345 | 0.0 | 0.0 | 0.00 | 0.00 | 0.00 | 99 | 1025.7 |
| 20260510070008 | 50 | 345 | 0.0 | 0.0 | 0.00 | 0.00 | 0.00 | 99 | 1025.6 |
| 20260510065504 | 50 | 345 | 0.0 | 0.0 | 0.00 | 0.00 | 0.00 | 99 | 1025.5 |
| 20260510065000 | 50 | 345 | 0.0 | 0.0 | 0.00 | 0.00 | 0.00 | 99 | 1025.4 |
| 20260510064457 | 50 | 345 | 0.0 | 0.0 | 0.00 | 0.00 | 0.00 | 98 | 1025.4 |
| 20260510063953 | 50 | 345 | 0.0 | 0.0 | 0.00 | 0.00 | 0.00 | 98 | 1025.5 |
| 20260510063450 | 50 | 345 | 0.0 | 0.0 | 0.00 | 0.00 | 0.00 | 98 | 1025.4 |
| 20260510062948 | 50 | 345 | 0.0 | 0.0 | 0.00 | 0.00 | 0.00 | 97 | 1025.7 |
| 20260510062443 | 50 | 345 | 0.0 | 0.0 | 0.00 | 0.00 | 0.00 | 97 | 1025.5 |
| 20260510061938 | 51 | 345 | 0.0 | 0.0 | 0.00 | 0.00 | 0.00 | 96 | 1025.7 |
| 20260510061435 | 51 | 345 | 0.0 | 0.0 | 0.00 | 0.00 | 0.00 | 96 | 1025.4 |
| 20260510060931 | 51 | 345 | 0.0 | 0.0 | 0.00 | 0.00 | 0.00 | 96 | 1025.8 |
| 20260510060428 | 51 | 352 | 0.0 | 0.0 | 0.00 | 0.00 | 0.00 | 95 | 1025.8 |
| 20260510055925 | 51 | 352 | 0.0 | 0.0 | 0.00 | 0.00 | 0.00 | 95 | 1025.7 |
| 20260510055420 | 52 | 352 | 0.0 | 0.0 | 0.00 | 0.00 | 0.00 | 95 | 1026.0 |
| 20260510054913 | 51 | 352 | 0.0 | 0.0 | 0.00 | 0.00 | 0.00 | 95 | 1025.7 |
| 20260510054408 | 52 | 352 | 0.0 | 0.0 | 0.00 | 0.00 | 0.00 | 95 | 1025.7 |
| 20260510053903 | 51 | 352 | 0.0 | 0.0 | 0.00 | 0.00 | 0.00 | 95 | 1025.7 |
| 20260510053359 | 52 | 352 | 0.0 | 0.0 | 0.00 | 0.00 | 0.00 | 94 | 1025.6 |
| 20260510052855 | 52 | 352 | 0.0 | 0.0 | 0.00 | 0.00 | 0.00 | 94 | 1025.3 |
| 20260510052351 | 52 | 352 | 0.0 | 0.0 | 0.00 | 0.00 | 0.00 | 93 | 1025.4 |
| 20260510051848 | 53 | 352 | 0.0 | 0.0 | 0.00 | 0.00 | 0.00 | 93 | 1025.7 |
| 20260510051344 | 53 | 352 | 0.0 | 0.0 | 0.00 | 0.00 | 0.00 | 92 | 1025.5 |
| 20260510050841 | 53 | 352 | 0.0 | 0.0 | 0.00 | 0.00 | 0.00 | 92 | 1025.6 |
| 20260510050338 | 53 | 352 | 0.0 | 0.0 | 0.00 | 0.00 | 0.00 | 92 | 1025.4 |
| 20260510045835 | 53 | 352 | 0.0 | 0.0 | 0.00 | 0.00 | 0.00 | 92 | 1025.5 |
| 20260510045331 | 54 | 352 | 0.0 | 0.0 | 0.00 | 0.00 | 0.00 | 93 | 1025.5 |
| 20260510044829 | 54 | 352 | 0.0 | 0.0 | 0.00 | 0.00 | 0.00 | 93 | 1025.3 |
| 20260510044326 | 54 | 352 | 0.0 | 0.0 | 0.00 | 0.00 | 0.00 | 92 | 1025.5 |
| 20260510043822 | 54 | 352 | 0.0 | 0.0 | 0.00 | 0.00 | 0.00 | 92 | 1025.5 |
| 20260510043318 | 54 | 352 | 0.0 | 0.0 | 0.00 | 0.00 | 0.00 | 91 | 1025.4 |
| 20260510042816 | 54 | 352 | 0.0 | 0.0 | 0.00 | 0.00 | 0.00 | 90 | 1025.3 |
| 20260510042312 | 55 | 352 | 0.0 | 0.0 | 0.00 | 0.00 | 0.00 | 90 | 1025.5 |
| 20260510041808 | 55 | 352 | 0.0 | 0.0 | 0.00 | 0.00 | 0.00 | 90 | 1025.3 |
| 20260510041305 | 56 | 352 | 0.0 | 0.0 | 0.00 | 0.00 | 0.00 | 90 | 1025.5 |
| 20260510040803 | 56 | 352 | 0.0 | 0.0 | 0.00 | 0.00 | 0.00 | 89 | 1025.2 |
| 20260510040259 | 56 | 7 | 0.0 | 0.0 | 0.00 | 0.00 | 0.00 | 88 | 1025.1 |
| 20260510035755 | 56 | 7 | 0.0 | 0.0 | 0.00 | 0.00 | 0.00 | 89 | 1025.2 |
| 20260510035251 | 57 | 7 | 0.0 | 0.0 | 0.00 | 0.00 | 0.00 | 88 | 1025.1 |
| 20260510034747 | 57 | 7 | 0.0 | 0.0 | 0.00 | 0.00 | 0.00 | 86 | 1025.4 |
| 20260510034245 | 58 | 7 | 0.0 | 0.0 | 0.00 | 0.00 | 0.00 | 85 | 1025.2 |
| 20260510033741 | 58 | 7 | 0.0 | 0.0 | 0.00 | 0.00 | 0.00 | 84 | 1025.1 |
| 20260510033238 | 59 | 7 | 0.0 | 0.0 | 0.00 | 0.00 | 0.00 | 83 | 1025.1 |
| 20260510032734 | 59 | 7 | 0.0 | 0.0 | 0.00 | 0.00 | 0.00 | 82 | 1025.3 |
| 20260510032231 | 60 | 7 | 0.0 | 0.0 | 0.00 | 0.00 | 0.00 | 83 | 1025.1 |
| 20260510031726 | 60 | 7 | 0.0 | 0.0 | 0.00 | 0.00 | 0.00 | 82 | 1025.1 |
| 20260510031222 | 61 | 7 | 0.0 | 0.0 | 0.00 | 0.00 | 0.00 | 80 | 1025.2 |
| 20260510030721 | 62 | 7 | 0.0 | 1.0 | 0.00 | 0.00 | 0.00 | 78 | 1025.2 |
| 20260510030219 | 62 | 15 | 0.0 | 0.0 | 0.00 | 0.00 | 0.00 | 77 | 1025.2 |
| 20260510025717 | 62 | 15 | 0.0 | 0.0 | 0.00 | 0.00 | 0.00 | 74 | 1025.2 |
| 20260510025214 | 63 | 15 | 0.0 | 1.0 | 0.00 | 0.00 | 0.00 | 76 | 1025.3 |
| 20260510024710 | 63 | 74 | 0.0 | 0.0 | 0.00 | 0.00 | 0.00 | 75 | 1025.4 |
| 20260510024207 | 64 | 74 | 0.0 | 0.0 | 0.00 | 0.00 | 0.00 | 73 | 1025.2 |
| 20260510023702 | 64 | 8 | 0.0 | 2.0 | 0.00 | 0.00 | 0.00 | 70 | 1025.4 |
| 20260510023200 | 64 | 351 | 0.0 | 2.0 | 0.00 | 0.00 | 0.00 | 72 | 1025.2 |
| 20260510022656 | 64 | 7 | 0.0 | 0.0 | 0.00 | 0.00 | 0.00 | 72 | 1025.3 |
| 20260510022150 | 65 | 7 | 0.0 | 0.0 | 0.00 | 0.00 | 0.00 | 71 | 1025.1 |
| 20260510021646 | 65 | 337 | 0.0 | 1.0 | 0.00 | 0.00 | 0.00 | 68 | 1025.2 |
| 20260510021144 | 66 | 77 | 1.0 | 2.0 | 0.00 | 0.00 | 0.00 | 66 | 1025.5 |
| 20260510020638 | 66 | 270 | 0.0 | 0.0 | 0.00 | 0.00 | 0.00 | 66 | 1025.5 |
| 20260510020133 | 66 | 0 | 0.0 | 1.0 | 0.00 | 0.00 | 0.00 | 66 | 1025.8 |
| 20260510015630 | 66 | 0 | 1.0 | 3.0 | 0.00 | 0.00 | 0.00 | 64 | 1025.7 |
| 20260510015127 | 66 | 60 | 0.0 | 3.0 | 0.00 | 0.00 | 0.00 | 64 | 1025.7 |
| 20260510014621 | 67 | 40 | 2.0 | 3.0 | 0.00 | 0.00 | 0.00 | 63 | 1025.7 |
| 20260510014119 | 67 | 0 | 0.0 | 1.0 | 0.00 | 0.00 | 0.00 | 65 | 1025.9 |
| 20260510013614 | 66 | 114 | 2.0 | 2.0 | 0.00 | 0.00 | 0.00 | 63 | 1025.9 |
| 20260510013110 | 67 | 57 | 2.0 | 3.0 | 0.00 | 0.00 | 0.00 | 64 | 1025.8 |
| 20260510012608 | 67 | 151 | 1.0 | 2.0 | 0.00 | 0.00 | 0.00 | 63 | 1025.8 |
| 20260510012106 | 67 | 346 | 3.0 | 3.0 | 0.00 | 0.00 | 0.00 | 63 | 1026.1 |
| 20260510011604 | 67 | 67 | 3.0 | 3.0 | 0.00 | 0.00 | 0.00 | 62 | 1025.9 |
| 20260510011101 | 68 | 78 | 0.0 | 0.0 | 0.00 | 0.00 | 0.00 | 62 | 1026.2 |
| 20260510010558 | 68 | 83 | 0.0 | 4.0 | 0.00 | 0.00 | 0.00 | 60 | 1026.3 |
| 20260510010055 | 68 | 257 | 0.0 | 4.0 | 0.00 | 0.00 | 0.00 | 59 | 1026.0 |
| 20260510005550 | 69 | 67 | 3.0 | 5.0 | 0.00 | 0.00 | 0.00 | 57 | 1026.6 |
| 20260510005048 | 69 | 84 | 0.0 | 2.0 | 0.00 | 0.00 | 0.00 | 57 | 1026.4 |
| 20260510004545 | 68 | 154 | 0.0 | 3.0 | 0.00 | 0.00 | 0.00 | 57 | 1026.5 |
| 20260510004043 | 69 | 32 | 2.0 | 2.0 | 0.00 | 0.00 | 0.00 | 58 | 1026.6 |
| 20260510003540 | 68 | 205 | 3.0 | 5.0 | 0.00 | 0.00 | 0.00 | 57 | 1026.5 |
| 20260510003035 | 68 | 213 | 2.0 | 3.0 | 0.00 | 0.00 | 0.00 | 57 | 1026.5 |
| 20260510002531 | 68 | 255 | 0.0 | 4.0 | 0.00 | 0.00 | 0.00 | 56 | 1026.4 |
| 20260510002028 | 68 | 352 | 3.0 | 4.0 | 0.00 | 0.00 | 0.00 | 57 | 1026.5 |
| 20260510001525 | 69 | 279 | 0.0 | 1.0 | 0.00 | 0.00 | 0.00 | 57 | 1026.7 |
| 20260510001024 | 68 | 348 | 2.0 | 3.0 | 0.00 | 0.00 | 0.00 | 56 | 1026.6 |
| 20260510000518 | 68 | 17 | 0.0 | 2.0 | 0.00 | 0.00 | 0.00 | 56 | 1026.7 |
| 20260510000016 | 68 | 235 | 0.0 | 2.0 | 0.00 | 0.00 | 0.00 | 56 | 1026.8 |
| 20260509235512 | 68 | 240 | 0.0 | 3.0 | 0.00 | 0.00 | 0.00 | 56 | 1026.8 |
| 20260509235009 | 69 | 185 | 2.0 | 3.0 | 0.00 | 0.00 | 0.00 | 56 | 1026.9 |
| 20260509234505 | 68 | 83 | 1.0 | 2.0 | 0.00 | 0.00 | 0.00 | 56 | 1027.0 |
| 20260509234003 | 69 | 355 | 1.0 | 1.0 | 0.00 | 0.00 | 0.00 | 54 | 1027.1 |
| 20260509233500 | 69 | 0 | 0.0 | 2.0 | 0.00 | 0.00 | 0.00 | 55 | 1026.9 |
| 20260509232956 | 69 | 180 | 2.0 | 3.0 | 0.00 | 0.00 | 0.00 | 55 | 1027.1 |
| 20260509232455 | 69 | 165 | 0.0 | 3.0 | 0.00 | 0.00 | 0.00 | 57 | 1027.1 |
| 20260509231950 | 69 | 261 | 0.0 | 2.0 | 0.00 | 0.00 | 0.00 | 55 | 1027.2 |
| 20260509231447 | 70 | 188 | 0.0 | 2.0 | 0.00 | 0.00 | 0.00 | 58 | 1027.1 |
| 20260509230945 | 69 | 240 | 2.0 | 2.0 | 0.00 | 0.00 | 0.00 | 54 | 1027.3 |
| 20260509230441 | 69 | 107 | 0.0 | 3.0 | 0.00 | 0.00 | 0.00 | 54 | 1027.4 |
| 20260509225937 | 69 | 188 | 0.0 | 3.0 | 0.00 | 0.00 | 0.00 | 56 | 1027.6 |
| 20260509225434 | 68 | 172 | 0.0 | 3.0 | 0.00 | 0.00 | 0.00 | 55 | 1027.6 |
| 20260509224930 | 68 | 254 | 1.0 | 4.0 | 0.00 | 0.00 | 0.00 | 55 | 1027.5 |
| 20260509224425 | 69 | 180 | 0.0 | 1.0 | 0.00 | 0.00 | 0.00 | 57 | 1027.6 |
| 20260509223923 | 69 | 334 | 1.0 | 3.0 | 0.00 | 0.00 | 0.00 | 54 | 1027.7 |
| 20260509223419 | 68 | 259 | 2.0 | 4.0 | 0.00 | 0.00 | 0.00 | 56 | 1027.6 |
| 20260509222916 | 69 | 120 | 5.0 | 5.0 | 0.00 | 0.00 | 0.00 | 54 | 1027.7 |
| 20260509222406 | 68 | 209 | 3.0 | 5.0 | 0.00 | 0.00 | 0.00 | 56 | 1027.9 |
| 20260509221901 | 68 | 337 | 0.0 | 4.0 | 0.00 | 0.00 | 0.00 | 57 | 1028.2 |
| 20260509221359 | 68 | 294 | 0.0 | 3.0 | 0.00 | 0.00 | 0.00 | 60 | 1027.9 |
| 20260509220855 | 67 | 129 | 2.0 | 6.0 | 0.00 | 0.00 | 0.00 | 55 | 1027.9 |
| 20260509220351 | 67 | 151 | 0.0 | 4.0 | 0.00 | 0.00 | 0.00 | 58 | 1028.3 |
| 20260509215847 | 68 | 133 | 3.0 | 4.0 | 0.00 | 0.00 | 0.00 | 57 | 1028.2 |
| 20260509215343 | 68 | 332 | 3.0 | 4.0 | 0.00 | 0.00 | 0.00 | 56 | 1028.3 |
| 20260509214840 | 68 | 16 | 2.0 | 3.0 | 0.00 | 0.00 | 0.00 | 57 | 1028.4 |
| 20260509214338 | 68 | 165 | 0.0 | 2.0 | 0.00 | 0.00 | 0.00 | 58 | 1028.6 |
| 20260509213835 | 68 | 160 | 0.0 | 2.0 | 0.00 | 0.00 | 0.00 | 58 | 1028.3 |
| 20260509213330 | 68 | 331 | 2.0 | 3.0 | 0.00 | 0.00 | 0.00 | 61 | 1028.5 |
| 20260509212828 | 67 | 7 | 0.0 | 6.0 | 0.00 | 0.00 | 0.00 | 59 | 1028.4 |
| 20260509212326 | 67 | 173 | 3.0 | 4.0 | 0.00 | 0.00 | 0.00 | 57 | 1028.6 |
| 20260509211821 | 67 | 349 | 0.0 | 5.0 | 0.00 | 0.00 | 0.00 | 61 | 1028.6 |
| 20260509211317 | 66 | 103 | 1.0 | 4.0 | 0.00 | 0.00 | 0.00 | 61 | 1028.6 |
| 20260509210814 | 66 | 165 | 0.0 | 3.0 | 0.00 | 0.00 | 0.00 | 63 | 1028.7 |
| 20260509210312 | 66 | 238 | 3.0 | 4.0 | 0.00 | 0.00 | 0.00 | 59 | 1028.7 |
| 20260509205811 | 67 | 291 | 1.0 | 3.0 | 0.00 | 0.00 | 0.00 | 58 | 1028.8 |
| 20260509205307 | 68 | 21 | 2.0 | 3.0 | 0.00 | 0.00 | 0.00 | 63 | 1028.9 |
| 20260509204802 | 66 | 8 | 2.0 | 5.0 | 0.00 | 0.00 | 0.00 | 66 | 1028.9 |
| 20260509204258 | 66 | 324 | 2.0 | 5.0 | 0.00 | 0.00 | 0.00 | 62 | 1028.7 |
| 20260509203755 | 66 | 130 | 3.0 | 6.0 | 0.00 | 0.00 | 0.00 | 68 | 1028.9 |
| 20260509203252 | 65 | 132 | 2.0 | 5.0 | 0.00 | 0.00 | 0.00 | 65 | 1028.8 |
| 20260509202748 | 66 | 209 | 1.0 | 3.0 | 0.00 | 0.00 | 0.00 | 63 | 1028.8 |
| 20260509202244 | 65 | 180 | 1.0 | 4.0 | 0.00 | 0.00 | 0.00 | 65 | 1028.9 |
| 20260509201738 | 66 | 320 | 3.0 | 4.0 | 0.00 | 0.00 | 0.00 | 68 | 1028.9 |
| 20260509201236 | 64 | 263 | 1.0 | 7.0 | 0.00 | 0.00 | 0.00 | 67 | 1028.9 |
| 20260509200732 | 65 | 190 | 2.0 | 3.0 | 0.00 | 0.00 | 0.00 | 68 | 1029.3 |
| 20260509200227 | 65 | 159 | 0.0 | 4.0 | 0.00 | 0.00 | 0.00 | 67 | 1029.3 |
| 20260509195723 | 65 | 213 | 2.0 | 3.0 | 0.00 | 0.00 | 0.00 | 72 | 1029.2 |
| 20260509195218 | 64 | 306 | 0.0 | 3.0 | 0.00 | 0.00 | 0.00 | 68 | 1029.0 |
| 20260509194713 | 65 | 109 | 3.0 | 3.0 | 0.00 | 0.00 | 0.00 | 68 | 1029.2 |
| 20260509194210 | 65 | 143 | 2.0 | 3.0 | 0.00 | 0.00 | 0.00 | 68 | 1029.4 |
| 20260509193707 | 64 | 195 | 1.0 | 3.0 | 0.00 | 0.00 | 0.00 | 69 | 1029.6 |
| 20260509193206 | 64 | 241 | 2.0 | 4.0 | 0.00 | 0.00 | 0.00 | 68 | 1029.5 |
| 20260509192703 | 64 | 90 | 0.0 | 4.0 | 0.00 | 0.00 | 0.00 | 70 | 1029.8 |
| 20260509192158 | 64 | 10 | 3.0 | 5.0 | 0.00 | 0.00 | 0.00 | 69 | 1029.6 |
| 20260509191654 | 63 | 112 | 4.0 | 5.0 | 0.00 | 0.00 | 0.00 | 70 | 1029.9 |
| 20260509191150 | 64 | 285 | 4.0 | 6.0 | 0.00 | 0.00 | 0.00 | 70 | 1029.8 |
| 20260509190646 | 63 | 0 | 2.0 | 4.0 | 0.00 | 0.00 | 0.00 | 72 | 1029.9 |
| 20260509190144 | 63 | 354 | 5.0 | 7.0 | 0.00 | 0.00 | 0.00 | 71 | 1030.0 |
| 20260509185642 | 64 | 266 | 5.0 | 5.0 | 0.00 | 0.00 | 0.00 | 73 | 1030.0 |
| 20260509185137 | 63 | 190 | 2.0 | 4.0 | 0.00 | 0.00 | 0.00 | 69 | 1030.3 |
| 20260509184635 | 63 | 180 | 1.0 | 3.0 | 0.00 | 0.00 | 0.00 | 69 | 1030.1 |
| 20260509184132 | 63 | 131 | 2.0 | 4.0 | 0.00 | 0.00 | 0.00 | 70 | 1030.4 |
| 20260509183628 | 63 | 117 | 3.0 | 3.0 | 0.00 | 0.00 | 0.00 | 69 | 1030.2 |
| 20260509183123 | 63 | 164 | 3.0 | 3.0 | 0.00 | 0.00 | 0.00 | 70 | 1030.3 |
| 20260509182620 | 63 | 0 | 0.0 | 4.0 | 0.00 | 0.00 | 0.00 | 72 | 1030.3 |
| 20260509182117 | 62 | 0 | 2.0 | 3.0 | 0.00 | 0.00 | 0.00 | 72 | 1030.3 |
| 20260509181615 | 62 | 346 | 3.0 | 5.0 | 0.00 | 0.00 | 0.00 | 71 | 1030.1 |
| 20260509181112 | 62 | 180 | 3.0 | 5.0 | 0.00 | 0.00 | 0.00 | 72 | 1030.4 |
| 20260509180608 | 62 | 108 | 3.0 | 3.0 | 0.00 | 0.00 | 0.00 | 72 | 1030.2 |
| 20260509180105 | 62 | 74 | 0.0 | 5.0 | 0.00 | 0.00 | 0.00 | 71 | 1030.2 |
| 20260509175601 | 62 | 257 | 2.0 | 2.0 | 0.00 | 0.00 | 0.00 | 69 | 1030.3 |
| 20260509175058 | 60 | 74 | 0.0 | 3.0 | 0.00 | 0.00 | 0.00 | 73 | 1030.3 |
| 20260509174554 | 60 | 334 | 3.0 | 8.0 | 0.00 | 0.00 | 0.00 | 74 | 1030.2 |
| 20260509174049 | 60 | 314 | 4.0 | 4.0 | 0.00 | 0.00 | 0.00 | 73 | 1030.3 |
| 20260509173544 | 61 | 2 | 3.0 | 4.0 | 0.00 | 0.00 | 0.00 | 75 | 1030.4 |
| 20260509173040 | 61 | 180 | 2.0 | 3.0 | 0.00 | 0.00 | 0.00 | 74 | 1030.4 |
| 20260509172538 | 60 | 95 | 4.0 | 4.0 | 0.00 | 0.00 | 0.00 | 74 | 1030.4 |
| 20260509172033 | 60 | 174 | 3.0 | 6.0 | 0.00 | 0.00 | 0.00 | 75 | 1030.5 |
| 20260509171529 | 61 | 98 | 1.0 | 1.0 | 0.00 | 0.00 | 0.00 | 77 | 1030.4 |
| 20260509171026 | 59 | 173 | 4.0 | 4.0 | 0.00 | 0.00 | 0.00 | 77 | 1030.6 |
| 20260509170522 | 59 | 0 | 0.0 | 3.0 | 0.00 | 0.00 | 0.00 | 77 | 1030.7 |
| 20260509170018 | 59 | 331 | 0.0 | 3.0 | 0.00 | 0.00 | 0.00 | 79 | 1030.6 |
| 20260509165516 | 58 | 0 | 0.0 | 3.0 | 0.00 | 0.00 | 0.00 | 81 | 1030.5 |
| 20260509165013 | 58 | 324 | 2.0 | 5.0 | 0.00 | 0.00 | 0.00 | 81 | 1030.8 |
| 20260509164509 | 58 | 1 | 4.0 | 5.0 | 0.00 | 0.00 | 0.00 | 82 | 1030.5 |
| 20260509164004 | 59 | 342 | 2.0 | 3.0 | 0.00 | 0.00 | 0.00 | 80 | 1030.5 |
| 20260509163502 | 60 | 14 | 2.0 | 2.0 | 0.00 | 0.00 | 0.00 | 82 | 1030.7 |
| 20260509163001 | 58 | 237 | 0.0 | 3.0 | 0.00 | 0.00 | 0.00 | 83 | 1030.7 |
| 20260509162500 | 58 | 192 | 0.0 | 2.0 | 0.00 | 0.00 | 0.00 | 83 | 1030.8 |
| 20260509161955 | 57 | 198 | 2.0 | 2.0 | 0.00 | 0.00 | 0.00 | 83 | 1030.8 |
| 20260509161452 | 58 | 102 | 4.0 | 4.0 | 0.00 | 0.00 | 0.00 | 82 | 1030.8 |
| 20260509160947 | 58 | 151 | 4.0 | 4.0 | 0.00 | 0.00 | 0.00 | 85 | 1030.9 |
| 20260509160444 | 57 | 107 | 3.0 | 5.0 | 0.00 | 0.00 | 0.00 | 85 | 1030.9 |
| 20260509155938 | 57 | 111 | 3.0 | 5.0 | 0.00 | 0.00 | 0.00 | 85 | 1031.2 |
| 20260509155436 | 56 | 328 | 0.0 | 2.0 | 0.00 | 0.00 | 0.00 | 89 | 1031.0 |
| 20260509154932 | 54 | 0 | 1.0 | 3.0 | 0.00 | 0.00 | 0.00 | 90 | 1031.1 |
| 20260509154428 | 53 | 12 | 3.0 | 5.0 | 0.00 | 0.00 | 0.00 | 93 | 1031.0 |
| 20260509153926 | 53 | 97 | 3.0 | 3.0 | 0.00 | 0.00 | 0.00 | 97 | 1031.2 |
| 20260509153422 | 52 | 21 | 0.0 | 2.0 | 0.00 | 0.00 | 0.00 | 99 | 1031.2 |
| 20260509152920 | 52 | 345 | 0.0 | 2.0 | 0.00 | 0.00 | 0.00 | 99 | 1031.4 |
| 20260509152415 | 52 | 131 | 0.0 | 0.0 | 0.00 | 0.00 | 0.00 | 99 | 1031.3 |
| 20260509151912 | 51 | 131 | 0.0 | 2.0 | 0.00 | 0.00 | 0.00 | 99 | 1031.3 |
| 20260509151408 | 51 | 21 | 2.0 | 3.0 | 0.00 | 0.00 | 0.00 | 99 | 1031.2 |
| 20260509150907 | 50 | 334 | 0.0 | 6.0 | 0.00 | 0.00 | 0.00 | 99 | 1031.4 |
| 20260509150404 | 50 | 0 | 0.0 | 3.0 | 0.00 | 0.00 | 0.00 | 99 | 1031.4 |
| 20260509145902 | 50 | 346 | 1.0 | 5.0 | 0.00 | 0.00 | 0.00 | 99 | 1031.4 |
| 20260509145401 | 49 | 51 | 4.0 | 6.0 | 0.00 | 0.00 | 0.00 | 99 | 1031.4 |
| 20260509144858 | 50 | 352 | 0.0 | 2.0 | 0.00 | 0.00 | 0.00 | 99 | 1031.4 |
| 20260509144355 | 49 | 41 | 2.0 | 4.0 | 0.00 | 0.00 | 0.00 | 99 | 1031.4 |
| 20260509143852 | 49 | 72 | 0.0 | 4.0 | 0.00 | 0.00 | 0.00 | 99 | 1031.5 |
| 20260509143349 | 50 | 346 | 0.0 | 2.0 | 0.00 | 0.00 | 0.00 | 99 | 1031.4 |
| 20260509142845 | 50 | 73 | 0.0 | 3.0 | 0.00 | 0.00 | 0.00 | 99 | 1031.4 |
| 20260509142342 | 50 | 348 | 0.0 | 1.0 | 0.00 | 0.00 | 0.00 | 99 | 1031.4 |
| 20260509141837 | 49 | 83 | 0.0 | 3.0 | 0.00 | 0.00 | 0.00 | 99 | 1031.5 |
| 20260509141335 | 50 | 75 | 0.0 | 1.0 | 0.00 | 0.00 | 0.00 | 99 | 1031.5 |
| 20260509140831 | 48 | 83 | 0.0 | 1.0 | 0.00 | 0.00 | 0.00 | 99 | 1031.4 |
| 20260509140328 | 49 | 0 | 0.0 | 1.0 | 0.00 | 0.00 | 0.00 | 99 | 1031.4 |
| 20260509135826 | 47 | 8 | 0.0 | 0.0 | 0.00 | 0.00 | 0.00 | 99 | 1031.5 |
| 20260509135323 | 46 | 352 | 2.0 | 3.0 | 0.00 | 0.00 | 0.00 | 99 | 1031.3 |
| 20260509134821 | 46 | 23 | 0.0 | 1.0 | 0.00 | 0.00 | 0.00 | 99 | 1031.3 |
| 20260509134318 | 45 | 102 | 0.0 | 2.0 | 0.00 | 0.00 | 0.00 | 99 | 1031.3 |
| 20260509133815 | 45 | 40 | 0.0 | 0.0 | 0.00 | 0.00 | 0.00 | 99 | 1031.2 |
| 20260509133311 | 44 | 40 | 0.0 | 0.0 | 0.00 | 0.00 | 0.00 | 99 | 1031.2 |
| 20260509132810 | 44 | 40 | 0.0 | 1.0 | 0.00 | 0.00 | 0.00 | 99 | 1031.2 |
| 20260509132308 | 44 | 66 | 0.0 | 0.0 | 0.00 | 0.00 | 0.00 | 99 | 1031.4 |
| 20260509131804 | 44 | 66 | 0.0 | 0.0 | 0.00 | 0.00 | 0.00 | 99 | 1031.3 |
| 20260509131301 | 44 | 229 | 0.0 | 0.0 | 0.00 | 0.00 | 0.00 | 99 | 1031.1 |
| 20260509130757 | 44 | 229 | 0.0 | 0.0 | 0.00 | 0.00 | 0.00 | 99 | 1031.4 |
| 20260509130253 | 45 | 229 | 0.0 | 0.0 | 0.00 | 0.00 | 0.00 | 99 | 1031.2 |
| 20260509125750 | 45 | 229 | 0.0 | 0.0 | 0.00 | 0.00 | 0.00 | 99 | 1031.5 |
| 20260509125247 | 45 | 229 | 0.0 | 0.0 | 0.00 | 0.00 | 0.00 | 99 | 1031.5 |
| 20260509124743 | 45 | 229 | 0.0 | 0.0 | 0.00 | 0.00 | 0.00 | 99 | 1031.3 |
| 20260509124240 | 45 | 229 | 0.0 | 0.0 | 0.00 | 0.00 | 0.00 | 99 | 1031.4 |
| 20260509123738 | 45 | 23 | 0.0 | 0.0 | 0.00 | 0.00 | 0.00 | 99 | 1031.3 |
| 20260509123235 | 45 | 120 | 0.0 | 0.0 | 0.00 | 0.00 | 0.00 | 99 | 1031.3 |
| 20260509122731 | 45 | 120 | 0.0 | 0.0 | 0.00 | 0.00 | 0.00 | 99 | 1031.5 |
| 20260509122228 | 45 | 120 | 0.0 | 1.0 | 0.00 | 0.00 | 0.00 | 99 | 1031.6 |
| 20260509121725 | 45 | 106 | 0.0 | 0.0 | 0.00 | 0.00 | 0.00 | 99 | 1031.4 |
| 20260509121222 | 44 | 106 | 0.0 | 0.0 | 0.00 | 0.00 | 0.00 | 99 | 1031.6 |
| 20260509120720 | 44 | 66 | 0.0 | 1.0 | 0.00 | 0.00 | 0.00 | 99 | 1031.6 |
| 20260509120218 | 44 | 23 | 0.0 | 0.0 | 0.00 | 0.00 | 0.00 | 99 | 1031.5 |
| 20260509115715 | 44 | 23 | 0.0 | 2.0 | 0.00 | 0.00 | 0.00 | 99 | 1031.5 |
| 20260509115212 | 44 | 74 | 0.0 | 0.0 | 0.00 | 0.00 | 0.00 | 99 | 1031.7 |
| 20260509114711 | 44 | 74 | 0.0 | 0.0 | 0.00 | 0.00 | 0.00 | 99 | 1031.7 |
| 20260509114209 | 44 | 74 | 0.0 | 0.0 | 0.00 | 0.00 | 0.00 | 99 | 1031.6 |
| 20260509113707 | 44 | 74 | 0.0 | 0.0 | 0.00 | 0.00 | 0.00 | 99 | 1031.8 |
| 20260509113204 | 44 | 74 | 0.0 | 0.0 | 0.00 | 0.00 | 0.00 | 99 | 1031.8 |
| 20260509112701 | 44 | 74 | 0.0 | 0.0 | 0.00 | 0.00 | 0.00 | 99 | 1031.9 |
| 20260509112158 | 44 | 74 | 0.0 | 0.0 | 0.00 | 0.00 | 0.00 | 99 | 1031.8 |
| 20260509111655 | 44 | 74 | 0.0 | 0.0 | 0.00 | 0.00 | 0.00 | 99 | 1031.9 |
| 20260509111151 | 44 | 66 | 0.0 | 0.0 | 0.00 | 0.00 | 0.00 | 99 | 1032.1 |
| 20260509110649 | 44 | 66 | 0.0 | 1.0 | 0.00 | 0.00 | 0.00 | 99 | 1031.9 |
| 20260509110146 | 44 | 74 | 0.0 | 0.0 | 0.00 | 0.00 | 0.00 | 99 | 1032.1 |
| 20260509105644 | 44 | 74 | 0.0 | 0.0 | 0.00 | 0.00 | 0.00 | 99 | 1032.1 |
| 20260509105141 | 44 | 74 | 0.0 | 0.0 | 0.00 | 0.00 | 0.00 | 99 | 1032.1 |
| 20260509104638 | 44 | 74 | 0.0 | 0.0 | 0.00 | 0.00 | 0.00 | 99 | 1031.9 |
| 20260509104135 | 45 | 23 | 0.0 | 0.0 | 0.00 | 0.00 | 0.00 | 99 | 1032.2 |
| 20260509103633 | 45 | 23 | 0.0 | 0.0 | 0.00 | 0.00 | 0.00 | 99 | 1031.9 |
| 20260509103130 | 46 | 40 | 0.0 | 0.0 | 0.00 | 0.00 | 0.00 | 99 | 1032.1 |
| 20260509102628 | 46 | 40 | 0.0 | 0.0 | 0.00 | 0.00 | 0.00 | 99 | 1031.9 |
| 20260509102125 | 46 | 40 | 0.0 | 0.0 | 0.00 | 0.00 | 0.00 | 99 | 1032.0 |
| 20260509101621 | 46 | 40 | 0.0 | 0.0 | 0.00 | 0.00 | 0.00 | 99 | 1032.0 |
| 20260509101118 | 46 | 40 | 0.0 | 0.0 | 0.00 | 0.00 | 0.00 | 99 | 1031.9 |
| 20260509100615 | 46 | 40 | 0.0 | 0.0 | 0.00 | 0.00 | 0.00 | 99 | 1031.9 |
| 20260509100112 | 46 | 40 | 0.0 | 1.0 | 0.00 | 0.00 | 0.00 | 99 | 1032.1 |
| 20260509095608 | 46 | 114 | 0.0 | 0.0 | 0.00 | 0.00 | 0.00 | 99 | 1032.2 |
| 20260509095106 | 46 | 99 | 0.0 | 0.0 | 0.00 | 0.00 | 0.00 | 99 | 1032.0 |
| 20260509094602 | 47 | 99 | 0.0 | 0.0 | 0.00 | 0.00 | 0.00 | 99 | 1032.1 |
| 20260509094059 | 47 | 99 | 0.0 | 0.0 | 0.00 | 0.00 | 0.00 | 99 | 1032.0 |
| 20260509093558 | 47 | 99 | 0.0 | 0.0 | 0.00 | 0.00 | 0.00 | 99 | 1031.9 |
| 20260509093055 | 48 | 99 | 0.0 | 0.0 | 0.00 | 0.00 | 0.00 | 99 | 1032.1 |
| 20260509092552 | 48 | 99 | 0.0 | 0.0 | 0.00 | 0.00 | 0.00 | 99 | 1032.2 |
| 20260509092051 | 49 | 99 | 0.0 | 0.0 | 0.00 | 0.00 | 0.00 | 99 | 1032.2 |
| 20260509091548 | 49 | 254 | 0.0 | 0.0 | 0.00 | 0.00 | 0.00 | 99 | 1032.1 |
| 20260509091044 | 49 | 254 | 0.0 | 0.0 | 0.00 | 0.00 | 0.00 | 99 | 1032.3 |
| 20260509090542 | 49 | 346 | 0.0 | 1.0 | 0.00 | 0.00 | 0.00 | 99 | 1032.2 |
| 20260509090040 | 50 | 81 | 0.0 | 3.0 | 0.00 | 0.00 | 0.00 | 99 | 1032.3 |
| 20260509085537 | 49 | 352 | 0.0 | 2.0 | 0.00 | 0.00 | 0.00 | 99 | 1032.1 |
| 20260509085032 | 49 | 114 | 0.0 | 1.0 | 0.00 | 0.00 | 0.00 | 99 | 1032.1 |
| 20260509084530 | 49 | 229 | 0.0 | 0.0 | 0.00 | 0.00 | 0.00 | 99 | 1032.2 |
| 20260509084027 | 49 | 246 | 0.0 | 0.0 | 0.00 | 0.00 | 0.00 | 99 | 1032.4 |
| 20260509083525 | 50 | 172 | 0.0 | 0.0 | 0.00 | 0.00 | 0.00 | 99 | 1032.3 |
| 20260509083021 | 50 | 81 | 0.0 | 0.0 | 0.00 | 0.00 | 0.00 | 99 | 1032.3 |
| 20260509082518 | 50 | 261 | 0.0 | 2.0 | 0.00 | 0.00 | 0.00 | 99 | 1032.2 |
| 20260509082015 | 50 | 105 | 0.0 | 4.0 | 0.00 | 0.00 | 0.00 | 99 | 1032.5 |
| 20260509081513 | 50 | 285 | 0.0 | 3.0 | 0.00 | 0.00 | 0.00 | 99 | 1032.5 |
| 20260509081009 | 50 | 55 | 0.0 | 3.0 | 0.00 | 0.00 | 0.00 | 99 | 1032.4 |
| 20260509080507 | 49 | 225 | 0.0 | 3.0 | 0.00 | 0.00 | 0.00 | 99 | 1032.5 |
| 20260509080005 | 49 | 165 | 0.0 | 0.0 | 0.00 | 0.00 | 0.00 | 99 | 1032.3 |
| 20260509075502 | 49 | 165 | 0.0 | 0.0 | 0.00 | 0.00 | 0.00 | 98 | 1032.3 |
| 20260509075000 | 50 | 172 | 0.0 | 3.0 | 0.00 | 0.00 | 0.00 | 98 | 1032.4 |
| 20260509074457 | 50 | 280 | 0.0 | 0.0 | 0.00 | 0.00 | 0.00 | 98 | 1032.3 |
| 20260509073953 | 50 | 115 | 2.0 | 2.0 | 0.00 | 0.00 | 0.00 | 98 | 1032.4 |
| 20260509073450 | 50 | 320 | 1.0 | 2.0 | 0.00 | 0.00 | 0.00 | 98 | 1032.3 |
| 20260509072946 | 49 | 98 | 0.0 | 1.0 | 0.00 | 0.00 | 0.00 | 98 | 1032.5 |
| 20260509072443 | 50 | 145 | 0.0 | 3.0 | 0.00 | 0.00 | 0.00 | 98 | 1032.4 |
| 20260509071940 | 50 | 188 | 0.0 | 0.0 | 0.00 | 0.00 | 0.00 | 97 | 1032.6 |
| 20260509071436 | 50 | 166 | 1.0 | 2.0 | 0.00 | 0.00 | 0.00 | 98 | 1032.5 |